sensor_id;sensor_type;location;lat;lon;timestamp;temperature;humidity
27567;DHT22;15006;48.584;9.186;2023-03-24T00:00:46;10.10;69.70
27567;DHT22;15006;48.584;9.186;2023-03-24T00:03:13;10.20;69.90
27567;DHT22;15006;48.584;9.186;2023-03-24T00:05:41;10.20;69.50
27567;DHT22;15006;48.584;9.186;2023-03-24T00:08:08;10.10;69.10
27567;DHT22;15006;48.584;9.186;2023-03-24T00:10:35;10.10;69.20
27567;DHT22;15006;48.584;9.186;2023-03-24T00:13:02;10.10;69.60
27567;DHT22;15006;48.584;9.186;2023-03-24T00:15:29;10.10;69.20
27567;DHT22;15006;48.584;9.186;2023-03-24T00:17:56;10.10;69.00
27567;DHT22;15006;48.584;9.186;2023-03-24T00:20:23;10.10;69.10
27567;DHT22;15006;48.584;9.186;2023-03-24T00:22:52;10.10;69.50
27567;DHT22;15006;48.584;9.186;2023-03-24T00:25:28;10.10;69.80
27567;DHT22;15006;48.584;9.186;2023-03-24T00:28:01;10.10;69.80
27567;DHT22;15006;48.584;9.186;2023-03-24T00:30:28;10.10;69.60
27567;DHT22;15006;48.584;9.186;2023-03-24T00:32:54;10.10;69.30
27567;DHT22;15006;48.584;9.186;2023-03-24T00:35:23;10.00;69.30
27567;DHT22;15006;48.584;9.186;2023-03-24T00:37:49;10.00;69.60
27567;DHT22;15006;48.584;9.186;2023-03-24T00:40:18;10.00;69.60
27567;DHT22;15006;48.584;9.186;2023-03-24T00:42:47;9.90;69.70
27567;DHT22;15006;48.584;9.186;2023-03-24T00:45:17;9.90;69.70
27567;DHT22;15006;48.584;9.186;2023-03-24T00:47:45;9.80;69.90
27567;DHT22;15006;48.584;9.186;2023-03-24T00:50:16;9.80;69.60
27567;DHT22;15006;48.584;9.186;2023-03-24T00:52:43;9.70;69.40
27567;DHT22;15006;48.584;9.186;2023-03-24T00:55:13;9.70;69.30
27567;DHT22;15006;48.584;9.186;2023-03-24T00:57:42;9.70;69.30
27567;DHT22;15006;48.584;9.186;2023-03-24T01:00:17;9.60;69.30
27567;DHT22;15006;48.584;9.186;2023-03-24T01:02:47;9.60;69.30
27567;DHT22;15006;48.584;9.186;2023-03-24T01:05:23;9.50;69.40
27567;DHT22;15006;48.584;9.186;2023-03-24T01:07:51;9.40;69.50
27567;DHT22;15006;48.584;9.186;2023-03-24T01:10:20;9.30;69.40
27567;DHT22;15006;48.584;9.186;2023-03-24T01:12:52;9.20;69.70
27567;DHT22;15006;48.584;9.186;2023-03-24T01:15:21;9.10;69.70
27567;DHT22;15006;48.584;9.186;2023-03-24T01:17:49;9.10;69.80
27567;DHT22;15006;48.584;9.186;2023-03-24T01:20:18;9.00;70.00
27567;DHT22;15006;48.584;9.186;2023-03-24T01:22:45;8.90;70.30
27567;DHT22;15006;48.584;9.186;2023-03-24T01:25:16;8.80;70.40
27567;DHT22;15006;48.584;9.186;2023-03-24T01:27:45;8.80;71.00
27567;DHT22;15006;48.584;9.186;2023-03-24T01:30:13;8.70;70.70
27567;DHT22;15006;48.584;9.186;2023-03-24T01:32:44;8.70;71.10
27567;DHT22;15006;48.584;9.186;2023-03-24T01:35:11;8.60;71.50
27567;DHT22;15006;48.584;9.186;2023-03-24T01:37:38;8.50;71.60
27567;DHT22;15006;48.584;9.186;2023-03-24T01:40:05;8.40;72.20
27567;DHT22;15006;48.584;9.186;2023-03-24T01:42:35;8.30;72.30
27567;DHT22;15006;48.584;9.186;2023-03-24T01:48:15;8.20;74.00
27567;DHT22;15006;48.584;9.186;2023-03-24T01:50:48;8.10;73.40
27567;DHT22;15006;48.584;9.186;2023-03-24T01:53:17;8.10;73.40
27567;DHT22;15006;48.584;9.186;2023-03-24T01:55:45;8.00;73.30
27567;DHT22;15006;48.584;9.186;2023-03-24T01:58:12;8.00;73.80
27567;DHT22;15006;48.584;9.186;2023-03-24T02:00:39;7.90;73.90
27567;DHT22;15006;48.584;9.186;2023-03-24T02:03:11;7.80;74.20
27567;DHT22;15006;48.584;9.186;2023-03-24T02:05:40;7.80;75.00
27567;DHT22;15006;48.584;9.186;2023-03-24T02:10:37;7.70;75.20
27567;DHT22;15006;48.584;9.186;2023-03-24T02:13:04;7.70;75.20
27567;DHT22;15006;48.584;9.186;2023-03-24T02:15:33;7.70;75.70
27567;DHT22;15006;48.584;9.186;2023-03-24T02:23:46;7.70;76.70
27567;DHT22;15006;48.584;9.186;2023-03-24T02:42:17;7.90;77.60
27567;DHT22;15006;48.584;9.186;2023-03-24T02:45:02;7.90;77.60
27567;DHT22;15006;48.584;9.186;2023-03-24T02:50:30;7.90;77.20
27567;DHT22;15006;48.584;9.186;2023-03-24T02:56:09;8.00;77.90
27567;DHT22;15006;48.584;9.186;2023-03-24T02:58:54;8.00;77.40
27567;DHT22;15006;48.584;9.186;2023-03-24T03:04:29;8.10;77.40
27567;DHT22;15006;48.584;9.186;2023-03-24T03:07:01;8.00;77.50
27567;DHT22;15006;48.584;9.186;2023-03-24T03:09:40;8.10;77.20
27567;DHT22;15006;48.584;9.186;2023-03-24T03:12:11;8.10;77.10
27567;DHT22;15006;48.584;9.186;2023-03-24T03:14:46;8.10;77.20
27567;DHT22;15006;48.584;9.186;2023-03-24T03:17:21;8.10;78.30
27567;DHT22;15006;48.584;9.186;2023-03-24T03:19:53;8.20;77.20
27567;DHT22;15006;48.584;9.186;2023-03-24T03:22:24;8.20;77.20
27567;DHT22;15006;48.584;9.186;2023-03-24T03:24:55;8.20;77.20
27567;DHT22;15006;48.584;9.186;2023-03-24T03:27:28;8.30;77.20
27567;DHT22;15006;48.584;9.186;2023-03-24T03:30:04;8.30;77.90
27567;DHT22;15006;48.584;9.186;2023-03-24T03:32:36;8.40;77.80
27567;DHT22;15006;48.584;9.186;2023-03-24T03:35:18;8.40;77.70
27567;DHT22;15006;48.584;9.186;2023-03-24T03:40:51;8.50;76.80
27567;DHT22;15006;48.584;9.186;2023-03-24T03:43:21;8.60;76.30
27567;DHT22;15006;48.584;9.186;2023-03-24T03:45:47;8.70;76.40
27567;DHT22;15006;48.584;9.186;2023-03-24T03:48:15;8.80;76.80
27567;DHT22;15006;48.584;9.186;2023-03-24T03:50:42;8.90;76.80
27567;DHT22;15006;48.584;9.186;2023-03-24T03:53:08;9.10;76.60
27567;DHT22;15006;48.584;9.186;2023-03-24T03:55:36;9.10;76.40
27567;DHT22;15006;48.584;9.186;2023-03-24T03:58:03;9.10;76.10
27567;DHT22;15006;48.584;9.186;2023-03-24T04:00:29;9.20;76.00
27567;DHT22;15006;48.584;9.186;2023-03-24T04:03:29;9.20;76.00
27567;DHT22;15006;48.584;9.186;2023-03-24T04:18:04;9.30;75.00
27567;DHT22;15006;48.584;9.186;2023-03-24T04:25:18;9.20;75.40
27567;DHT22;15006;48.584;9.186;2023-03-24T04:31:45;9.20;75.20
27567;DHT22;15006;48.584;9.186;2023-03-24T04:34:51;9.10;75.80
27567;DHT22;15006;48.584;9.186;2023-03-24T04:37:13;9.20;76.20
27567;DHT22;15006;48.584;9.186;2023-03-24T04:39:45;9.20;76.50
27567;DHT22;15006;48.584;9.186;2023-03-24T04:42:19;9.10;75.80
27567;DHT22;15006;48.584;9.186;2023-03-24T04:44:47;9.10;75.70
27567;DHT22;15006;48.584;9.186;2023-03-24T04:47:18;9.10;75.60
27567;DHT22;15006;48.584;9.186;2023-03-24T04:49:45;9.10;75.70
27567;DHT22;15006;48.584;9.186;2023-03-24T04:52:11;9.10;75.60
27567;DHT22;15006;48.584;9.186;2023-03-24T04:54:37;9.20;75.50
27567;DHT22;15006;48.584;9.186;2023-03-24T04:57:03;9.20;75.30
27567;DHT22;15006;48.584;9.186;2023-03-24T04:59:31;9.20;75.20
27567;DHT22;15006;48.584;9.186;2023-03-24T05:01:59;9.30;75.20
27567;DHT22;15006;48.584;9.186;2023-03-24T05:04:28;9.30;75.40
27567;DHT22;15006;48.584;9.186;2023-03-24T05:06:55;9.30;75.00
27567;DHT22;15006;48.584;9.186;2023-03-24T05:09:23;9.40;75.30
27567;DHT22;15006;48.584;9.186;2023-03-24T05:11:50;9.40;74.80
27567;DHT22;15006;48.584;9.186;2023-03-24T05:14:17;9.40;74.50
27567;DHT22;15006;48.584;9.186;2023-03-24T05:16:43;9.50;74.00
27567;DHT22;15006;48.584;9.186;2023-03-24T05:19:09;9.60;74.00
27567;DHT22;15006;48.584;9.186;2023-03-24T05:21:35;9.60;74.30
27567;DHT22;15006;48.584;9.186;2023-03-24T05:24:01;9.70;73.50
27567;DHT22;15006;48.584;9.186;2023-03-24T05:26:28;9.80;73.30
27567;DHT22;15006;48.584;9.186;2023-03-24T05:28:55;9.90;73.40
27567;DHT22;15006;48.584;9.186;2023-03-24T05:31:21;10.10;73.40
27567;DHT22;15006;48.584;9.186;2023-03-24T05:33:47;10.20;73.30
27567;DHT22;15006;48.584;9.186;2023-03-24T05:36:14;10.30;73.70
27567;DHT22;15006;48.584;9.186;2023-03-24T05:38:40;10.40;74.00
27567;DHT22;15006;48.584;9.186;2023-03-24T05:41:06;10.40;74.40
27567;DHT22;15006;48.584;9.186;2023-03-24T05:43:33;10.50;74.90
27567;DHT22;15006;48.584;9.186;2023-03-24T05:45:58;10.40;75.20
27567;DHT22;15006;48.584;9.186;2023-03-24T05:48:25;10.40;75.60
27567;DHT22;15006;48.584;9.186;2023-03-24T05:50:52;10.30;76.40
27567;DHT22;15006;48.584;9.186;2023-03-24T05:53:18;10.30;76.60
27567;DHT22;15006;48.584;9.186;2023-03-24T05:55:45;10.20;77.40
27567;DHT22;15006;48.584;9.186;2023-03-24T05:58:11;10.10;78.00
27567;DHT22;15006;48.584;9.186;2023-03-24T06:00:37;10.10;78.80
27567;DHT22;15006;48.584;9.186;2023-03-24T06:03:03;10.00;78.80
27567;DHT22;15006;48.584;9.186;2023-03-24T06:05:30;9.90;79.50
27567;DHT22;15006;48.584;9.186;2023-03-24T06:07:57;9.90;79.70
27567;DHT22;15006;48.584;9.186;2023-03-24T06:10:26;9.90;79.90
27567;DHT22;15006;48.584;9.186;2023-03-24T06:12:54;9.90;80.00
27567;DHT22;15006;48.584;9.186;2023-03-24T06:15:21;9.90;80.40
27567;DHT22;15006;48.584;9.186;2023-03-24T06:17:49;9.80;80.50
27567;DHT22;15006;48.584;9.186;2023-03-24T06:20:15;9.80;80.60
27567;DHT22;15006;48.584;9.186;2023-03-24T06:22:44;9.80;80.60
27567;DHT22;15006;48.584;9.186;2023-03-24T06:25:14;9.80;81.10
27567;DHT22;15006;48.584;9.186;2023-03-24T06:27:42;9.80;81.10
27567;DHT22;15006;48.584;9.186;2023-03-24T06:30:14;9.80;82.00
27567;DHT22;15006;48.584;9.186;2023-03-24T06:32:41;9.80;81.60
27567;DHT22;15006;48.584;9.186;2023-03-24T06:35:12;9.80;81.70
27567;DHT22;15006;48.584;9.186;2023-03-24T06:37:39;9.80;81.80
27567;DHT22;15006;48.584;9.186;2023-03-24T06:40:07;9.80;82.10
27567;DHT22;15006;48.584;9.186;2023-03-24T06:42:39;9.80;82.40
27567;DHT22;15006;48.584;9.186;2023-03-24T06:45:06;9.80;82.50
27567;DHT22;15006;48.584;9.186;2023-03-24T06:47:33;9.80;82.70
27567;DHT22;15006;48.584;9.186;2023-03-24T06:49:59;9.80;83.10
27567;DHT22;15006;48.584;9.186;2023-03-24T06:52:25;9.90;83.30
27567;DHT22;15006;48.584;9.186;2023-03-24T06:54:52;9.90;83.70
27567;DHT22;15006;48.584;9.186;2023-03-24T06:57:18;9.90;84.00
27567;DHT22;15006;48.584;9.186;2023-03-24T06:59:44;10.00;84.10
27567;DHT22;15006;48.584;9.186;2023-03-24T07:02:10;10.00;84.40
27567;DHT22;15006;48.584;9.186;2023-03-24T07:04:37;10.00;84.50
27567;DHT22;15006;48.584;9.186;2023-03-24T07:07:03;10.00;84.90
27567;DHT22;15006;48.584;9.186;2023-03-24T07:09:29;10.00;85.10
27567;DHT22;15006;48.584;9.186;2023-03-24T07:11:55;10.10;85.50
27567;DHT22;15006;48.584;9.186;2023-03-24T07:14:22;10.10;85.60
27567;DHT22;15006;48.584;9.186;2023-03-24T07:16:51;10.00;85.90
27567;DHT22;15006;48.584;9.186;2023-03-24T07:19:18;10.00;86.40
27567;DHT22;15006;48.584;9.186;2023-03-24T07:21:44;9.90;86.60
27567;DHT22;15006;48.584;9.186;2023-03-24T07:24:16;9.90;87.20
27567;DHT22;15006;48.584;9.186;2023-03-24T07:26:42;9.80;87.60
27567;DHT22;15006;48.584;9.186;2023-03-24T07:29:09;9.80;88.30
27567;DHT22;15006;48.584;9.186;2023-03-24T07:31:36;9.70;89.00
27567;DHT22;15006;48.584;9.186;2023-03-24T07:34:06;9.70;90.00
27567;DHT22;15006;48.584;9.186;2023-03-24T07:36:32;9.60;90.40
27567;DHT22;15006;48.584;9.186;2023-03-24T07:38:58;9.60;90.80
27567;DHT22;15006;48.584;9.186;2023-03-24T07:41:24;9.50;91.00
27567;DHT22;15006;48.584;9.186;2023-03-24T07:43:52;9.50;91.50
27567;DHT22;15006;48.584;9.186;2023-03-24T07:46:18;9.40;92.60
27567;DHT22;15006;48.584;9.186;2023-03-24T07:48:44;9.40;92.80
27567;DHT22;15006;48.584;9.186;2023-03-24T07:51:10;9.40;92.90
27567;DHT22;15006;48.584;9.186;2023-03-24T07:53:36;9.30;93.30
27567;DHT22;15006;48.584;9.186;2023-03-24T07:56:02;9.30;93.60
27567;DHT22;15006;48.584;9.186;2023-03-24T07:58:28;9.30;93.90
27567;DHT22;15006;48.584;9.186;2023-03-24T08:00:54;9.30;94.30
27567;DHT22;15006;48.584;9.186;2023-03-24T08:03:20;9.30;95.40
27567;DHT22;15006;48.584;9.186;2023-03-24T08:05:49;9.30;95.80
27567;DHT22;15006;48.584;9.186;2023-03-24T08:08:15;9.30;96.10
27567;DHT22;15006;48.584;9.186;2023-03-24T08:10:41;9.30;96.40
27567;DHT22;15006;48.584;9.186;2023-03-24T08:13:10;9.30;96.90
27567;DHT22;15006;48.584;9.186;2023-03-24T08:15:36;9.30;97.30
27567;DHT22;15006;48.584;9.186;2023-03-24T08:18:02;9.40;97.90
27567;DHT22;15006;48.584;9.186;2023-03-24T08:20:28;9.40;98.20
27567;DHT22;15006;48.584;9.186;2023-03-24T08:22:54;9.40;98.40
27567;DHT22;15006;48.584;9.186;2023-03-24T08:25:23;9.40;98.80
27567;DHT22;15006;48.584;9.186;2023-03-24T08:27:51;9.40;99.10
27567;DHT22;15006;48.584;9.186;2023-03-24T08:30:19;9.40;99.40
27567;DHT22;15006;48.584;9.186;2023-03-24T08:32:52;9.40;99.70
27567;DHT22;15006;48.584;9.186;2023-03-24T08:35:25;9.30;99.80
27567;DHT22;15006;48.584;9.186;2023-03-24T08:37:56;9.40;99.90
27567;DHT22;15006;48.584;9.186;2023-03-24T08:40:25;9.40;99.90
27567;DHT22;15006;48.584;9.186;2023-03-24T08:42:57;9.40;99.90
27567;DHT22;15006;48.584;9.186;2023-03-24T08:45:26;9.40;99.90
27567;DHT22;15006;48.584;9.186;2023-03-24T08:47:58;9.40;99.90
27567;DHT22;15006;48.584;9.186;2023-03-24T08:50:28;9.40;99.90
27567;DHT22;15006;48.584;9.186;2023-03-24T08:52:57;9.50;99.90
27567;DHT22;15006;48.584;9.186;2023-03-24T08:55:24;9.50;99.90
27567;DHT22;15006;48.584;9.186;2023-03-24T08:57:50;9.50;99.90
27567;DHT22;15006;48.584;9.186;2023-03-24T09:00:17;9.50;99.90
27567;DHT22;15006;48.584;9.186;2023-03-24T09:02:53;9.50;99.90
27567;DHT22;15006;48.584;9.186;2023-03-24T09:05:21;9.40;99.90
27567;DHT22;15006;48.584;9.186;2023-03-24T09:07:49;9.50;99.90
27567;DHT22;15006;48.584;9.186;2023-03-24T09:10:16;9.50;99.90
27567;DHT22;15006;48.584;9.186;2023-03-24T09:12:43;9.50;99.90
27567;DHT22;15006;48.584;9.186;2023-03-24T09:15:12;9.50;99.90
27567;DHT22;15006;48.584;9.186;2023-03-24T09:17:39;9.50;99.90
27567;DHT22;15006;48.584;9.186;2023-03-24T09:20:07;9.60;99.90
27567;DHT22;15006;48.584;9.186;2023-03-24T09:22:41;9.60;99.90
27567;DHT22;15006;48.584;9.186;2023-03-24T09:25:10;9.70;99.90
27567;DHT22;15006;48.584;9.186;2023-03-24T09:27:38;9.80;99.90
27567;DHT22;15006;48.584;9.186;2023-03-24T09:30:05;9.80;99.90
27567;DHT22;15006;48.584;9.186;2023-03-24T09:32:32;9.90;99.90
27567;DHT22;15006;48.584;9.186;2023-03-24T09:34:59;10.00;99.90
27567;DHT22;15006;48.584;9.186;2023-03-24T09:37:28;10.20;99.90
27567;DHT22;15006;48.584;9.186;2023-03-24T09:39:55;10.20;99.90
27567;DHT22;15006;48.584;9.186;2023-03-24T09:42:25;10.30;99.90
27567;DHT22;15006;48.584;9.186;2023-03-24T09:44:56;10.50;99.90
27567;DHT22;15006;48.584;9.186;2023-03-24T09:47:35;10.60;99.90
27567;DHT22;15006;48.584;9.186;2023-03-24T09:50:15;10.70;99.50
27567;DHT22;15006;48.584;9.186;2023-03-24T09:52:44;10.80;99.90
27567;DHT22;15006;48.584;9.186;2023-03-24T09:55:25;11.00;97.60
27567;DHT22;15006;48.584;9.186;2023-03-24T09:57:54;11.10;99.30
27567;DHT22;15006;48.584;9.186;2023-03-24T10:00:28;11.20;99.00
27567;DHT22;15006;48.584;9.186;2023-03-24T10:03:05;11.40;97.60
27567;DHT22;15006;48.584;9.186;2023-03-24T10:05:57;11.60;97.50
27567;DHT22;15006;48.584;9.186;2023-03-24T10:08:42;11.70;94.30
27567;DHT22;15006;48.584;9.186;2023-03-24T10:19:28;12.60;92.00
27567;DHT22;15006;48.584;9.186;2023-03-24T10:28:21;12.80;88.60
27567;DHT22;15006;48.584;9.186;2023-03-24T10:30:50;12.80;88.50
27567;DHT22;15006;48.584;9.186;2023-03-24T10:33:18;12.80;86.30
27567;DHT22;15006;48.584;9.186;2023-03-24T10:36:08;12.80;86.50
27567;DHT22;15006;48.584;9.186;2023-03-24T10:38:35;12.80;86.20
27567;DHT22;15006;48.584;9.186;2023-03-24T10:41:02;12.80;88.60
27567;DHT22;15006;48.584;9.186;2023-03-24T10:43:29;12.80;85.80
27567;DHT22;15006;48.584;9.186;2023-03-24T10:45:57;12.80;85.10
27567;DHT22;15006;48.584;9.186;2023-03-24T10:51:05;12.70;83.30
27567;DHT22;15006;48.584;9.186;2023-03-24T10:53:32;12.70;80.10
27567;DHT22;15006;48.584;9.186;2023-03-24T10:55:58;12.60;82.90
27567;DHT22;15006;48.584;9.186;2023-03-24T10:58:38;12.50;82.30
27567;DHT22;15006;48.584;9.186;2023-03-24T11:01:25;12.50;81.40
27567;DHT22;15006;48.584;9.186;2023-03-24T11:03:59;12.50;80.20
27567;DHT22;15006;48.584;9.186;2023-03-24T11:06:30;12.40;82.50
27567;DHT22;15006;48.584;9.186;2023-03-24T11:09:17;12.40;81.60
27567;DHT22;15006;48.584;9.186;2023-03-24T11:11:45;12.40;81.00
27567;DHT22;15006;48.584;9.186;2023-03-24T11:14:24;12.50;79.70
27567;DHT22;15006;48.584;9.186;2023-03-24T11:16:54;12.40;77.00
27567;DHT22;15006;48.584;9.186;2023-03-24T11:19:28;12.40;79.00
27567;DHT22;15006;48.584;9.186;2023-03-24T11:22:01;12.40;79.50
27567;DHT22;15006;48.584;9.186;2023-03-24T11:24:29;12.40;78.40
27567;DHT22;15006;48.584;9.186;2023-03-24T11:26:59;12.40;79.50
27567;DHT22;15006;48.584;9.186;2023-03-24T11:29:28;12.40;76.20
27567;DHT22;15006;48.584;9.186;2023-03-24T11:31:59;12.40;77.60
27567;DHT22;15006;48.584;9.186;2023-03-24T11:34:33;12.40;77.20
27567;DHT22;15006;48.584;9.186;2023-03-24T11:37:24;12.40;77.40
27567;DHT22;15006;48.584;9.186;2023-03-24T11:40:22;12.40;72.80
27567;DHT22;15006;48.584;9.186;2023-03-24T11:42:58;12.40;73.00
27567;DHT22;15006;48.584;9.186;2023-03-24T11:45:40;12.40;74.90
27567;DHT22;15006;48.584;9.186;2023-03-24T11:48:21;12.50;74.30
27567;DHT22;15006;48.584;9.186;2023-03-24T11:50:57;12.50;73.40
27567;DHT22;15006;48.584;9.186;2023-03-24T11:53:29;12.50;74.00
27567;DHT22;15006;48.584;9.186;2023-03-24T11:56:32;12.50;73.60
27567;DHT22;15006;48.584;9.186;2023-03-24T11:59:35;12.50;73.30
27567;DHT22;15006;48.584;9.186;2023-03-24T12:07:40;12.40;71.40
27567;DHT22;15006;48.584;9.186;2023-03-24T12:10:43;12.40;70.30
27567;DHT22;15006;48.584;9.186;2023-03-24T12:39:55;12.20;73.00
27567;DHT22;15006;48.584;9.186;2023-03-24T12:42:39;12.20;72.70
27567;DHT22;15006;48.584;9.186;2023-03-24T12:45:20;12.30;72.90
27567;DHT22;15006;48.584;9.186;2023-03-24T12:53:52;12.50;71.30
27567;DHT22;15006;48.584;9.186;2023-03-24T12:56:34;12.70;69.20
27567;DHT22;15006;48.584;9.186;2023-03-24T12:59:17;12.90;70.40
27567;DHT22;15006;48.584;9.186;2023-03-24T13:02:11;13.10;69.10
27567;DHT22;15006;48.584;9.186;2023-03-24T13:04:43;13.20;67.20
27567;DHT22;15006;48.584;9.186;2023-03-24T13:07:15;13.30;66.90
27567;DHT22;15006;48.584;9.186;2023-03-24T13:13:02;13.20;65.00
27567;DHT22;15006;48.584;9.186;2023-03-24T13:17:48;13.00;64.40
27567;DHT22;15006;48.584;9.186;2023-03-24T13:20:42;13.00;66.50
27567;DHT22;15006;48.584;9.186;2023-03-24T13:37:51;12.40;66.10
27567;DHT22;15006;48.584;9.186;2023-03-24T13:40:27;12.30;66.20
27567;DHT22;15006;48.584;9.186;2023-03-24T13:53:48;12.00;67.70
27567;DHT22;15006;48.584;9.186;2023-03-24T13:56:35;12.00;68.10
27567;DHT22;15006;48.584;9.186;2023-03-24T14:01:44;11.90;69.00
27567;DHT22;15006;48.584;9.186;2023-03-24T14:04:49;11.90;68.70
27567;DHT22;15006;48.584;9.186;2023-03-24T14:21:05;11.50;68.90
27567;DHT22;15006;48.584;9.186;2023-03-24T14:23:41;11.50;69.90
27567;DHT22;15006;48.584;9.186;2023-03-24T14:28:47;11.50;69.20
27567;DHT22;15006;48.584;9.186;2023-03-24T14:33:56;11.40;70.60
27567;DHT22;15006;48.584;9.186;2023-03-24T14:36:38;11.40;70.40
27567;DHT22;15006;48.584;9.186;2023-03-24T14:39:35;11.40;71.50
27567;DHT22;15006;48.584;9.186;2023-03-24T14:45:05;11.40;71.10
27567;DHT22;15006;48.584;9.186;2023-03-24T14:47:58;11.40;71.90
27567;DHT22;15006;48.584;9.186;2023-03-24T14:50:26;11.30;71.80
27567;DHT22;15006;48.584;9.186;2023-03-24T14:52:58;11.30;71.90
27567;DHT22;15006;48.584;9.186;2023-03-24T14:55:26;11.20;72.30
27567;DHT22;15006;48.584;9.186;2023-03-24T14:57:55;11.20;72.30
27567;DHT22;15006;48.584;9.186;2023-03-24T15:00:41;11.10;72.20
27567;DHT22;15006;48.584;9.186;2023-03-24T15:04:06;11.10;72.20
27567;DHT22;15006;48.584;9.186;2023-03-24T15:06:26;11.10;72.10
27567;DHT22;15006;48.584;9.186;2023-03-24T15:08:54;11.00;72.80
27567;DHT22;15006;48.584;9.186;2023-03-24T15:11:30;11.00;72.40
27567;DHT22;15006;48.584;9.186;2023-03-24T15:13:59;10.90;72.90
27567;DHT22;15006;48.584;9.186;2023-03-24T15:16:32;10.90;73.00
27567;DHT22;15006;48.584;9.186;2023-03-24T15:19:17;10.80;72.90
27567;DHT22;15006;48.584;9.186;2023-03-24T15:21:47;10.80;73.00
27567;DHT22;15006;48.584;9.186;2023-03-24T15:24:36;10.80;73.70
27567;DHT22;15006;48.584;9.186;2023-03-24T15:29:39;10.80;74.00
27567;DHT22;15006;48.584;9.186;2023-03-24T15:32:16;10.70;73.40
27567;DHT22;15006;48.584;9.186;2023-03-24T15:34:50;10.70;74.00
27567;DHT22;15006;48.584;9.186;2023-03-24T15:37:38;10.60;73.80
27567;DHT22;15006;48.584;9.186;2023-03-24T15:42:52;10.50;73.60
27567;DHT22;15006;48.584;9.186;2023-03-24T15:45:43;10.50;73.70
27567;DHT22;15006;48.584;9.186;2023-03-24T15:48:20;10.40;73.70
27567;DHT22;15006;48.584;9.186;2023-03-24T15:53:28;10.30;73.90
27567;DHT22;15006;48.584;9.186;2023-03-24T15:58:55;10.20;73.70
27567;DHT22;15006;48.584;9.186;2023-03-24T16:01:26;10.20;74.00
27567;DHT22;15006;48.584;9.186;2023-03-24T16:04:04;10.20;73.40
27567;DHT22;15006;48.584;9.186;2023-03-24T16:06:34;10.10;74.00
27567;DHT22;15006;48.584;9.186;2023-03-24T16:09:06;10.10;73.90
27567;DHT22;15006;48.584;9.186;2023-03-24T16:11:34;10.10;74.20
27567;DHT22;15006;48.584;9.186;2023-03-24T16:14:00;10.10;74.30
27567;DHT22;15006;48.584;9.186;2023-03-24T16:16:35;10.00;74.40
27567;DHT22;15006;48.584;9.186;2023-03-24T16:19:02;10.00;74.50
27567;DHT22;15006;48.584;9.186;2023-03-24T16:21:29;9.90;74.90
27567;DHT22;15006;48.584;9.186;2023-03-24T16:23:56;9.90;74.80
27567;DHT22;15006;48.584;9.186;2023-03-24T16:26:25;9.90;75.30
27567;DHT22;15006;48.584;9.186;2023-03-24T16:28:53;9.90;75.90
27567;DHT22;15006;48.584;9.186;2023-03-24T16:31:30;10.00;76.20
27567;DHT22;15006;48.584;9.186;2023-03-24T16:33:58;10.00;76.00
27567;DHT22;15006;48.584;9.186;2023-03-24T16:36:24;10.00;76.00
27567;DHT22;15006;48.584;9.186;2023-03-24T16:38:52;10.00;75.70
27567;DHT22;15006;48.584;9.186;2023-03-24T16:41:19;10.00;76.20
27567;DHT22;15006;48.584;9.186;2023-03-24T16:43:45;10.10;76.00
27567;DHT22;15006;48.584;9.186;2023-03-24T16:46:37;10.10;75.90
27567;DHT22;15006;48.584;9.186;2023-03-24T16:49:03;10.10;75.80
27567;DHT22;15006;48.584;9.186;2023-03-24T16:51:30;10.20;74.80
27567;DHT22;15006;48.584;9.186;2023-03-24T16:53:57;10.20;75.30
27567;DHT22;15006;48.584;9.186;2023-03-24T16:56:23;10.20;75.30
27567;DHT22;15006;48.584;9.186;2023-03-24T16:58:50;10.20;75.20
27567;DHT22;15006;48.584;9.186;2023-03-24T17:03:53;10.20;74.90
27567;DHT22;15006;48.584;9.186;2023-03-24T17:06:22;10.10;74.60
27567;DHT22;15006;48.584;9.186;2023-03-24T17:08:48;10.10;74.80
27567;DHT22;15006;48.584;9.186;2023-03-24T17:11:26;10.10;74.70
27567;DHT22;15006;48.584;9.186;2023-03-24T17:13:55;10.00;74.50
27567;DHT22;15006;48.584;9.186;2023-03-24T17:16:32;10.00;74.60
27567;DHT22;15006;48.584;9.186;2023-03-24T17:19:06;10.00;74.90
27567;DHT22;15006;48.584;9.186;2023-03-24T17:21:44;10.00;75.00
27567;DHT22;15006;48.584;9.186;2023-03-24T17:24:20;10.00;74.60
27567;DHT22;15006;48.584;9.186;2023-03-24T17:27:02;9.90;74.50
27567;DHT22;15006;48.584;9.186;2023-03-24T17:30:42;9.90;74.70
27567;DHT22;15006;48.584;9.186;2023-03-24T17:33:11;9.80;74.50
27567;DHT22;15006;48.584;9.186;2023-03-24T17:35:39;9.80;74.50
27567;DHT22;15006;48.584;9.186;2023-03-24T17:38:05;9.80;74.50
27567;DHT22;15006;48.584;9.186;2023-03-24T17:40:31;9.70;74.40
27567;DHT22;15006;48.584;9.186;2023-03-24T17:42:57;9.70;74.40
27567;DHT22;15006;48.584;9.186;2023-03-24T17:45:23;9.60;74.40
27567;DHT22;15006;48.584;9.186;2023-03-24T17:47:49;9.60;74.70
27567;DHT22;15006;48.584;9.186;2023-03-24T17:50:15;9.60;74.70
27567;DHT22;15006;48.584;9.186;2023-03-24T17:52:46;9.50;74.80
27567;DHT22;15006;48.584;9.186;2023-03-24T17:55:14;9.50;74.90
27567;DHT22;15006;48.584;9.186;2023-03-24T17:57:41;9.40;75.20
27567;DHT22;15006;48.584;9.186;2023-03-24T18:00:09;9.40;75.10
27567;DHT22;15006;48.584;9.186;2023-03-24T18:02:41;9.30;75.20
27567;DHT22;15006;48.584;9.186;2023-03-24T18:05:09;9.30;75.50
27567;DHT22;15006;48.584;9.186;2023-03-24T18:07:40;9.20;75.40
27567;DHT22;15006;48.584;9.186;2023-03-24T18:10:06;9.20;75.30
27567;DHT22;15006;48.584;9.186;2023-03-24T18:12:33;9.10;75.60
27567;DHT22;15006;48.584;9.186;2023-03-24T18:15:00;9.10;75.60
27567;DHT22;15006;48.584;9.186;2023-03-24T18:17:27;9.10;75.80
27567;DHT22;15006;48.584;9.186;2023-03-24T18:19:53;9.00;75.90
27567;DHT22;15006;48.584;9.186;2023-03-24T18:22:21;9.00;75.90
27567;DHT22;15006;48.584;9.186;2023-03-24T18:24:48;8.90;75.90
27567;DHT22;15006;48.584;9.186;2023-03-24T18:27:15;8.80;75.90
27567;DHT22;15006;48.584;9.186;2023-03-24T18:29:41;8.80;76.00
27567;DHT22;15006;48.584;9.186;2023-03-24T18:32:08;8.70;76.10
27567;DHT22;15006;48.584;9.186;2023-03-24T18:34:34;8.70;76.20
27567;DHT22;15006;48.584;9.186;2023-03-24T18:37:00;8.70;76.20
27567;DHT22;15006;48.584;9.186;2023-03-24T18:39:27;8.60;76.30
27567;DHT22;15006;48.584;9.186;2023-03-24T18:41:53;8.60;76.40
27567;DHT22;15006;48.584;9.186;2023-03-24T18:44:20;8.60;76.60
27567;DHT22;15006;48.584;9.186;2023-03-24T18:46:47;8.50;76.60
27567;DHT22;15006;48.584;9.186;2023-03-24T18:49:13;8.50;76.70
27567;DHT22;15006;48.584;9.186;2023-03-24T18:51:40;8.50;76.80
27567;DHT22;15006;48.584;9.186;2023-03-24T18:54:09;8.40;76.80
27567;DHT22;15006;48.584;9.186;2023-03-24T18:56:37;8.40;76.70
27567;DHT22;15006;48.584;9.186;2023-03-24T18:59:03;8.40;76.90
27567;DHT22;15006;48.584;9.186;2023-03-24T19:01:29;8.30;76.90
27567;DHT22;15006;48.584;9.186;2023-03-24T19:03:58;8.30;76.90
27567;DHT22;15006;48.584;9.186;2023-03-24T19:06:25;8.30;76.90
27567;DHT22;15006;48.584;9.186;2023-03-24T19:08:55;8.30;76.80